This is the latest recevied weather packets stored in our database for station/object OK0EK-12. If no packets are shown the sender has not sent any weather packets the latest 1 day(s).
| Time | Temp. | Humidity | Pressure | Rain* | Wind** | Luminosity | Snow |
|---|---|---|---|---|---|---|---|
| 1778078079 | 22.78° C | 39% | 1086 hPa | - | - | - | - |
| 1778075678 | 23.89° C | 36% | 1086.1 hPa | - | - | - | - |
| 1778075078 | 27.22° C | 31% | 1086.2 hPa | - | - | - | - |
| 1778074478 | 25.56° C | 34% | 1086.4 hPa | - | - | - | - |
| 1778073144 | 27.78° C | 29% | 1086.3 hPa | - | - | - | - |
| 1778072920 | 28.33° C | 31% | 1086.6 hPa | - | - | - | - |
| 1778072077 | 27.78° C | 29% | 1086.3 hPa | - | - | - | - |
| 1778071477 | 28.33° C | 31% | 1086.6 hPa | - | - | - | - |
| 1778070877 | 28.89° C | 29% | 1086.5 hPa | - | - | - | - |
| 1778067876 | 27.78° C | 32% | 1086.6 hPa | - | - | - | - |
| 1778067276 | 24.44° C | 35% | 1086.7 hPa | - | - | - | - |
| 1778066676 | 26.67° C | 30% | 1086.7 hPa | - | - | - | - |
| 1778064275 | 26.67° C | 33% | 1086.6 hPa | - | - | - | - |
| 1778063675 | 26.11° C | 34% | 1086.7 hPa | - | - | - | - |
| 1778063075 | 26.67° C | 34% | 1086.7 hPa | - | - | - | - |
| 1778061274 | 23.89° C | 39% | 1087 hPa | - | - | - | - |
| 1778060070 | 25.56° C | 39% | 1087.2 hPa | - | - | - | - |
| 1778059471 | 22.78° C | 42% | 1087.1 hPa | - | - | - | - |
| 1778057674 | 24.44° C | 37% | 1087 hPa | - | - | - | - |
| 1778057083 | 21.11° C | 44% | 1087.1 hPa | - | - | - | - |
| 1778056478 | 21.67° C | 44% | 1086.8 hPa | - | - | - | - |
| 1778055879 | 22.78° C | 43% | 1086.8 hPa | - | - | - | - |
| 1778054681 | 23.33° C | 40% | 1086.6 hPa | - | - | - | - |
| 1778053483 | 22.78° C | 43% | 1086.7 hPa | - | - | - | - |
| 1778052885 | 22.22° C | 44% | 1086.6 hPa | - | - | - | - |
* Rain since midnight (hover to see other rain measurements)
** Current wind speed in m/s (hover to see current wind gust speed)